createdAt,value
2022-08-07T00:00:29.123Z,101921.13
2022-08-07T00:02:55.449Z,101922.97
2022-08-07T00:05:23.638Z,101918.56
2022-08-07T00:07:58.295Z,101921.53
2022-08-07T00:10:30.371Z,101922.19
2022-08-07T00:13:01.093Z,101925.44
2022-08-07T00:15:36.127Z,101914.56
2022-08-07T00:18:05.399Z,101924.81
2022-08-07T00:20:35.324Z,101917.50
2022-08-07T00:23:02.363Z,101905.25
2022-08-07T00:25:28.822Z,101901.44
2022-08-07T00:28:04.192Z,101908.09
2022-08-07T00:30:31.397Z,101905.75
2022-08-07T00:33:02.110Z,101906.91
2022-08-07T00:35:29.687Z,101905.78
2022-08-07T00:37:56.957Z,101909.22
2022-08-07T00:40:39.374Z,101902.78
2022-08-07T00:43:09.860Z,101897.47
2022-08-07T00:45:38.651Z,101904.28
2022-08-07T00:48:09.114Z,101905.38
2022-08-07T00:50:46.113Z,101901.13
2022-08-07T00:53:12.734Z,101905.59
2022-08-07T00:56:00.774Z,101907.97
2022-08-07T00:58:25.431Z,101910.78
2022-08-07T01:00:53.601Z,101915.56
2022-08-07T01:03:25.437Z,101911.72
2022-08-07T01:06:08.526Z,101908.41
2022-08-07T01:08:35.041Z,101920.03
2022-08-07T01:12:04.243Z,101917.72
2022-08-07T01:13:55.763Z,101916.59
2022-08-07T01:16:30.059Z,101915.25
2022-08-07T01:18:57.834Z,101923.75
2022-08-07T01:21:26.160Z,101927.19
2022-08-07T01:23:56.687Z,101918.53
2022-08-07T01:26:26.020Z,101924.56
2022-08-07T01:28:53.525Z,101921.22
2022-08-07T01:31:21.719Z,101923.72
2022-08-07T01:33:57.477Z,101921.09
2022-08-07T01:36:33.886Z,101912.97
2022-08-07T01:39:04.236Z,101913.47
2022-08-07T01:41:37.505Z,101910.56
2022-08-07T01:44:05.331Z,101910.25
2022-08-07T01:46:32.026Z,101910.56
2022-08-07T01:48:59.970Z,101901.03
2022-08-07T01:52:03.131Z,101907.78
2022-08-07T01:54:33.177Z,101908.94
2022-08-07T01:57:24.150Z,101909.50
2022-08-07T02:00:01.899Z,101914.78
2022-08-07T02:03:18.174Z,101899.25
2022-08-07T02:05:48.169Z,101905.66
2022-08-07T02:08:23.769Z,101905.16
2022-08-07T02:10:55.257Z,101907.31
2022-08-07T02:13:56.828Z,101904.66
2022-08-07T02:16:15.386Z,101898.72
2022-08-07T02:18:46.836Z,101900.06
2022-08-07T02:21:16.236Z,101903.13
2022-08-07T02:23:44.836Z,101895.09
2022-08-07T02:26:34.189Z,101889.03
2022-08-07T02:29:00.728Z,101888.63
2022-08-07T02:31:29.295Z,101890.69
2022-08-07T02:34:04.365Z,101888.84
2022-08-07T02:36:40.370Z,101885.28
2022-08-07T02:39:16.563Z,101891.00
2022-08-07T02:41:56.557Z,101893.69
2022-08-07T02:44:27.451Z,101884.66
2022-08-07T02:46:56.112Z,101884.72
2022-08-07T02:49:56.485Z,101878.13
2022-08-07T02:52:13.958Z,101879.25
2022-08-07T02:54:42.396Z,101882.44
2022-08-07T02:57:13.475Z,101887.44
2022-08-07T02:59:44.256Z,101877.22
2022-08-07T03:02:21.613Z,101877.56
2022-08-07T03:04:48.720Z,101878.84
2022-08-07T03:07:16.367Z,101875.25
2022-08-07T03:09:52.442Z,101875.09
2022-08-07T03:12:22.234Z,101881.09
2022-08-07T03:14:52.238Z,101879.50
2022-08-07T03:17:19.702Z,101879.97
2022-08-07T03:19:54.755Z,101882.25
2022-08-07T03:22:24.233Z,101882.19
2022-08-07T03:24:56.225Z,101883.47
2022-08-07T03:27:29.957Z,101874.56
2022-08-07T03:29:58.613Z,101881.91
2022-08-07T03:32:28.400Z,101886.88
2022-08-07T03:35:00.926Z,101883.50
2022-08-07T03:37:53.814Z,101886.88
2022-08-07T03:40:22.613Z,101887.16
2022-08-07T03:42:50.889Z,101883.94
2022-08-07T03:45:29.987Z,101881.19
2022-08-07T03:47:58.350Z,101879.38
2022-08-07T03:50:25.456Z,101884.66
2022-08-07T03:52:58.033Z,101886.41
2022-08-07T03:55:24.564Z,101890.94
2022-08-07T03:59:07.308Z,101887.81
2022-08-07T04:01:00.339Z,101883.28
2022-08-07T04:03:26.972Z,101883.88
2022-08-07T04:05:53.448Z,101885.28
2022-08-07T04:08:26.257Z,101883.75
2022-08-07T04:10:54.090Z,101887.75
2022-08-07T04:14:09.296Z,101881.25
2022-08-07T04:16:30.352Z,101890.41
2022-08-07T04:19:01.331Z,101890.09
2022-08-07T04:21:31.893Z,101887.69
2022-08-07T04:24:07.318Z,101884.88
2022-08-07T04:26:34.582Z,101885.41
2022-08-07T04:29:01.563Z,101888.59
2022-08-07T04:31:39.120Z,101888.41
2022-08-07T04:34:17.429Z,101889.28
2022-08-07T04:36:54.228Z,101890.25
2022-08-07T04:39:25.856Z,101891.81
2022-08-07T04:41:52.721Z,101894.91
2022-08-07T04:44:19.337Z,101896.75
2022-08-07T04:47:08.542Z,101900.53
2022-08-07T04:50:03.501Z,101900.94
2022-08-07T04:52:46.652Z,101894.63
2022-08-07T04:58:12.863Z,101896.00
2022-08-07T04:59:18.325Z,101896.03
2022-08-07T05:01:42.277Z,101892.63
2022-08-07T05:04:47.099Z,101901.31
2022-08-07T05:07:30.636Z,101896.75
2022-08-07T05:10:24.681Z,101900.25
2022-08-07T05:14:44.875Z,101890.94
2022-08-07T05:15:53.975Z,101888.09
2022-08-07T05:18:32.148Z,101887.38
2022-08-07T05:21:04.013Z,101897.22
2022-08-07T05:23:41.838Z,101885.13
2022-08-07T05:26:23.627Z,101889.22
2022-08-07T05:28:53.008Z,101891.06
2022-08-07T05:31:23.031Z,101898.03
2022-08-07T05:34:04.620Z,101909.16
2022-08-07T05:36:35.458Z,101906.00
2022-08-07T05:40:06.571Z,101902.38
2022-08-07T05:42:02.497Z,101903.97
2022-08-07T05:44:30.869Z,101900.72
2022-08-07T05:47:01.070Z,101901.88
2022-08-07T05:49:40.608Z,101907.56
2022-08-07T05:52:07.981Z,101910.91
2022-08-07T05:54:44.497Z,101906.06
2022-08-07T05:57:20.991Z,101902.66
2022-08-07T05:59:57.231Z,101905.28
2022-08-07T06:02:29.053Z,101917.38
2022-08-07T06:05:01.577Z,101916.38
2022-08-07T06:08:14.725Z,101912.94
2022-08-07T06:10:17.705Z,101908.28
2022-08-07T06:12:45.352Z,101912.78
2022-08-07T06:15:16.248Z,101915.59
2022-08-07T06:17:53.439Z,101917.66
2022-08-07T06:20:25.223Z,101914.91
2022-08-07T06:23:02.153Z,101918.69
2022-08-07T06:25:54.894Z,101913.75
2022-08-07T06:28:27.221Z,101927.22
2022-08-07T06:30:56.312Z,101925.03
2022-08-07T06:33:25.371Z,101922.25
2022-08-07T06:36:12.138Z,101917.97
2022-08-07T06:38:38.093Z,101916.31
2022-08-07T06:41:15.612Z,101912.38
2022-08-07T06:43:46.168Z,101919.75
2022-08-07T06:46:14.209Z,101916.16
2022-08-07T06:48:41.978Z,101919.28
2022-08-07T06:51:15.540Z,101916.13
2022-08-07T06:55:29.206Z,101911.50
2022-08-07T06:56:49.474Z,101914.53
2022-08-07T07:00:12.031Z,101914.03
2022-08-07T07:02:08.543Z,101910.47
2022-08-07T07:04:38.008Z,101915.56
2022-08-07T07:07:10.379Z,101917.75
2022-08-07T07:09:47.179Z,101906.66
2022-08-07T07:12:15.643Z,101909.06
2022-08-07T07:15:01.234Z,101909.81
2022-08-07T07:18:02.176Z,101903.50
2022-08-07T07:20:39.314Z,101911.53
2022-08-07T07:24:10.106Z,101903.31
2022-08-07T07:29:28.542Z,101900.16
2022-08-07T07:31:44.428Z,101892.09
2022-08-07T07:34:16.387Z,101892.50
2022-08-07T07:36:47.801Z,101893.09
2022-08-07T07:39:22.607Z,101898.00
2022-08-07T07:42:13.009Z,101890.59
2022-08-07T07:44:41.872Z,101883.81
2022-08-07T07:47:17.491Z,101896.22
2022-08-07T07:50:32.445Z,101884.50
2022-08-07T07:52:40.881Z,101889.78
2022-08-07T07:55:10.938Z,101898.72
2022-08-07T07:57:52.433Z,101886.66
2022-08-07T08:00:29.401Z,101885.22
2022-08-07T08:03:06.275Z,101879.88
2022-08-07T08:05:50.834Z,101881.41
2022-08-07T08:08:35.497Z,101871.38
2022-08-07T08:11:05.716Z,101874.75
2022-08-07T08:13:52.999Z,101870.09
2022-08-07T08:16:26.166Z,101862.38
2022-08-07T08:18:57.924Z,101861.16
2022-08-07T08:21:25.538Z,101857.63
2022-08-07T08:24:36.517Z,101855.81
2022-08-07T08:27:06.009Z,101857.34
2022-08-07T08:29:54.598Z,101855.84
2022-08-07T08:32:38.083Z,101852.09
2022-08-07T08:35:06.968Z,101856.16
2022-08-07T08:38:01.012Z,101861.31
2022-08-07T08:40:32.302Z,101850.19
2022-08-07T08:43:08.894Z,101854.41
2022-08-07T08:45:59.607Z,101858.16
2022-08-07T08:48:50.916Z,101851.03
2022-08-07T08:51:49.580Z,101853.06
2022-08-07T08:54:24.178Z,101844.00
2022-08-07T08:56:53.960Z,101850.69
2022-08-07T08:59:47.891Z,101841.88
2022-08-07T09:02:39.512Z,101847.09
2022-08-07T09:05:37.175Z,101843.63
2022-08-07T09:08:39.296Z,101846.53
2022-08-07T09:11:50.534Z,101841.44
2022-08-07T09:14:31.101Z,101838.34
2022-08-07T09:17:06.167Z,101846.03
2022-08-07T09:19:52.601Z,101845.28
2022-08-07T09:24:28.390Z,101841.75
2022-08-07T09:26:07.296Z,101832.34
2022-08-07T09:30:05.650Z,101838.00
2022-08-07T09:31:49.213Z,101832.41
2022-08-07T09:34:24.515Z,101818.50
2022-08-07T09:37:05.982Z,101818.25
2022-08-07T09:39:53.739Z,101815.59
2022-08-07T09:42:52.348Z,101811.50
2022-08-07T09:47:50.852Z,101811.13
2022-08-07T09:50:01.911Z,101808.50
2022-08-07T09:52:10.265Z,101805.47
2022-08-07T09:54:54.252Z,101810.09
2022-08-07T09:57:46.377Z,101802.97
2022-08-07T10:00:20.775Z,101799.34
2022-08-07T10:04:07.207Z,101799.16
2022-08-07T10:06:38.504Z,101795.31
2022-08-07T10:09:59.216Z,101796.31
2022-08-07T10:12:53.151Z,101792.59
2022-08-07T10:15:44.545Z,101796.53
2022-08-07T10:18:26.539Z,101793.31
2022-08-07T10:21:19.762Z,101784.19
2022-08-07T10:24:21.598Z,101786.81
2022-08-07T10:27:16.633Z,101793.16
2022-08-07T10:29:56.785Z,101783.00
2022-08-07T10:32:53.306Z,101787.63
2022-08-07T10:35:55.837Z,101781.25
2022-08-07T10:38:48.734Z,101774.81
2022-08-07T10:41:47.325Z,101777.88
2022-08-07T10:44:45.179Z,101771.66
2022-08-07T10:47:53.105Z,101765.78
2022-08-07T10:50:26.243Z,101760.06
2022-08-07T10:53:08.919Z,101760.75
2022-08-07T10:55:53.509Z,101761.91
2022-08-07T10:58:46.137Z,101754.44
2022-08-07T11:01:35.879Z,101756.53
2022-08-07T11:04:34.830Z,101743.88
2022-08-07T11:07:24.825Z,101737.63
2022-08-07T11:10:17.016Z,101733.94
2022-08-07T11:13:02.324Z,101733.25
2022-08-07T11:15:33.467Z,101730.28
2022-08-07T11:18:09.961Z,101727.59
2022-08-07T11:20:49.472Z,101725.75
2022-08-07T11:23:39.423Z,101713.66
2022-08-07T11:26:17.611Z,101718.97
2022-08-07T11:28:55.257Z,101713.97
2022-08-07T11:31:57.413Z,101707.06
2022-08-07T11:34:53.389Z,101710.56
2022-08-07T11:38:12.470Z,101710.38
2022-08-07T11:40:49.852Z,101698.78
2022-08-07T11:43:41.194Z,101701.69
2022-08-07T11:46:18.046Z,101708.97
2022-08-07T11:49:50.855Z,101691.13
2022-08-07T11:52:17.711Z,101690.47
2022-08-07T11:56:15.534Z,101689.06
2022-08-07T11:58:33.853Z,101690.72
2022-08-07T12:01:20.236Z,101686.63
2022-08-07T12:04:13.505Z,101692.28
2022-08-07T12:06:57.297Z,101688.91
2022-08-07T12:09:49.212Z,101691.66
2022-08-07T12:12:25.635Z,101687.41
2022-08-07T12:15:02.010Z,101678.66
2022-08-07T12:17:59.648Z,101676.34
2022-08-07T12:20:37.748Z,101674.38
2022-08-07T12:24:06.083Z,101674.66
2022-08-07T12:26:34.478Z,101672.47
2022-08-07T12:29:15.611Z,101663.91
2022-08-07T12:32:03.797Z,101667.63
2022-08-07T12:34:34.321Z,101667.75
2022-08-07T12:37:01.981Z,101661.53
2022-08-07T12:39:43.786Z,101661.38
2022-08-07T12:42:27.048Z,101657.06
2022-08-07T12:44:57.732Z,101654.09
2022-08-07T12:47:41.739Z,101649.50
2022-08-07T12:50:38.611Z,101651.88
2022-08-07T12:54:24.152Z,101657.38
2022-08-07T12:56:35.737Z,101652.06
2022-08-07T12:59:04.824Z,101650.91
2022-08-07T13:02:02.608Z,101652.56
2022-08-07T13:06:02.008Z,101650.91
2022-08-07T13:08:18.882Z,101652.28
2022-08-07T13:11:03.134Z,101639.94
2022-08-07T13:13:48.606Z,101643.84
2022-08-07T13:16:40.026Z,101642.13
2022-08-07T13:19:45.944Z,101646.28
2022-08-07T13:22:27.712Z,101631.16
2022-08-07T13:25:02.531Z,101637.38
2022-08-07T13:28:11.389Z,101638.88
2022-08-07T13:30:40.296Z,101625.66
2022-08-07T13:34:29.851Z,101628.22
2022-08-07T13:36:26.017Z,101616.31
2022-08-07T13:39:13.136Z,101623.19
2022-08-07T13:41:58.229Z,101615.69
2022-08-07T13:44:34.496Z,101615.25
2022-08-07T13:47:09.395Z,101599.03
2022-08-07T13:50:35.133Z,101602.66
2022-08-07T13:52:38.104Z,101598.84
2022-08-07T13:55:19.730Z,101586.22
2022-08-07T13:58:05.102Z,101595.44
2022-08-07T14:00:50.522Z,101579.03
2022-08-07T14:03:29.960Z,101586.03
2022-08-07T14:06:11.965Z,101579.34
2022-08-07T14:08:53.601Z,101585.22
2022-08-07T14:11:22.767Z,101578.47
2022-08-07T14:13:53.966Z,101575.75
2022-08-07T14:16:27.291Z,101577.22
2022-08-07T14:19:01.408Z,101576.56
2022-08-07T14:22:02.853Z,101576.41
2022-08-07T14:24:36.801Z,101574.88
2022-08-07T14:28:11.492Z,101577.53
2022-08-07T14:30:11.373Z,101572.50
2022-08-07T14:32:47.927Z,101571.25
2022-08-07T14:35:44.778Z,101565.28
2022-08-07T14:38:26.665Z,101564.63
2022-08-07T14:41:05.261Z,101561.75
2022-08-07T14:43:57.644Z,101562.75
2022-08-07T14:46:31.516Z,101558.66
2022-08-07T14:49:17.605Z,101557.22
2022-08-07T14:54:42.077Z,101548.22
2022-08-07T14:57:19.587Z,101552.72
2022-08-07T15:02:36.844Z,101549.72
2022-08-07T15:05:04.490Z,101543.53
2022-08-07T15:07:51.314Z,101540.34
2022-08-07T15:13:19.527Z,101553.31
2022-08-07T15:15:52.797Z,101541.88
2022-08-07T15:18:34.859Z,101539.53
2022-08-07T15:21:44.086Z,101535.53
2022-08-07T15:25:15.443Z,101533.47
2022-08-07T15:26:58.562Z,101529.69
2022-08-07T15:30:09.323Z,101522.06
2022-08-07T15:32:39.157Z,101525.94
2022-08-07T15:35:12.254Z,101530.81
2022-08-07T15:38:04.523Z,101529.31
2022-08-07T15:43:53.054Z,101524.28
2022-08-07T15:46:32.383Z,101521.69
2022-08-07T15:54:33.955Z,101518.44
2022-08-07T15:57:02.625Z,101516.50
2022-08-07T15:59:40.120Z,101512.00
2022-08-07T16:02:24.447Z,101517.38
2022-08-07T16:04:59.714Z,101520.56
2022-08-07T16:08:31.978Z,101514.81
2022-08-07T16:10:24.940Z,101511.28
2022-08-07T16:13:17.557Z,101512.19
2022-08-07T16:16:48.037Z,101513.28
2022-08-07T16:19:15.504Z,101515.13
2022-08-07T16:22:07.261Z,101511.66
2022-08-07T16:24:55.240Z,101510.78
2022-08-07T16:27:39.946Z,101515.59
2022-08-07T16:30:30.743Z,101505.72
2022-08-07T16:34:01.305Z,101505.66
2022-08-07T16:36:19.844Z,101506.72
2022-08-07T16:39:02.132Z,101507.50
2022-08-07T16:42:08.762Z,101503.28
2022-08-07T16:45:24.738Z,101497.44
2022-08-07T16:47:56.540Z,101502.41
2022-08-07T16:51:21.693Z,101499.22
2022-08-07T16:54:10.277Z,101503.56
2022-08-07T16:57:15.433Z,101505.56
2022-08-07T17:00:10.947Z,101495.50
2022-08-07T17:03:05.878Z,101500.97
2022-08-07T17:06:19.379Z,101495.53
2022-08-07T17:09:10.631Z,101489.91
2022-08-07T17:12:03.879Z,101495.25
2022-08-07T17:14:56.087Z,101498.16
2022-08-07T17:17:46.068Z,101492.00
2022-08-07T17:20:22.608Z,101490.50
2022-08-07T17:23:33.128Z,101497.50
2022-08-07T17:26:30.597Z,101491.84
2022-08-07T17:30:14.678Z,101487.44
2022-08-07T17:32:30.308Z,101486.94
2022-08-07T17:35:49.640Z,101485.88
2022-08-07T17:38:32.187Z,101485.97
2022-08-07T17:42:03.429Z,101483.47
2022-08-07T17:44:33.678Z,101489.94
2022-08-07T17:47:16.668Z,101487.69
2022-08-07T17:50:16.439Z,101487.16
2022-08-07T17:52:59.644Z,101484.97
2022-08-07T17:55:56.583Z,101486.88
2022-08-07T17:58:39.932Z,101486.47
2022-08-07T18:01:27.734Z,101485.06
2022-08-07T18:04:21.345Z,101484.97
2022-08-07T18:07:20.298Z,101488.69
2022-08-07T18:10:05.712Z,101486.25
2022-08-07T18:12:51.206Z,101483.88
2022-08-07T18:15:33.054Z,101489.06
2022-08-07T18:19:02.628Z,101490.13
2022-08-07T18:21:41.443Z,101493.44
2022-08-07T18:24:34.689Z,101494.66
2022-08-07T18:27:38.155Z,101492.44
2022-08-07T18:30:30.767Z,101501.53
2022-08-07T18:33:34.226Z,101511.75
2022-08-07T18:36:33.169Z,101505.91
2022-08-07T18:40:06.952Z,101508.81
2022-08-07T18:42:20.032Z,101512.91
2022-08-07T18:45:44.123Z,101511.81
2022-08-07T18:48:01.306Z,101517.03
2022-08-07T18:50:46.319Z,101515.97
2022-08-07T18:53:36.690Z,101524.34
2022-08-07T18:56:12.591Z,101522.91
2022-08-07T18:59:00.792Z,101524.97
2022-08-07T19:02:32.650Z,101526.63
2022-08-07T19:04:38.887Z,101531.22
2022-08-07T19:07:35.028Z,101529.78
2022-08-07T19:10:06.039Z,101527.47
2022-08-07T19:12:58.180Z,101534.13
2022-08-07T19:16:05.756Z,101547.13
2022-08-07T19:18:44.978Z,101543.78
2022-08-07T19:21:44.287Z,101547.78
2022-08-07T19:24:29.951Z,101553.47
2022-08-07T19:28:28.656Z,101550.28
2022-08-07T19:31:01.228Z,101557.31
2022-08-07T19:32:45.016Z,101561.78
2022-08-07T19:35:17.785Z,101565.72
2022-08-07T19:37:56.350Z,101572.84
2022-08-07T19:40:31.586Z,101575.34
2022-08-07T19:43:07.495Z,101576.06
2022-08-07T19:46:07.537Z,101577.03
2022-08-07T19:48:29.912Z,101577.59
2022-08-07T19:51:20.409Z,101571.50
2022-08-07T19:54:35.665Z,101584.63
2022-08-07T19:57:52.349Z,101578.44
2022-08-07T20:00:29.061Z,101584.47
2022-08-07T20:03:01.658Z,101589.59
2022-08-07T20:05:37.906Z,101580.91
2022-08-07T20:08:24.429Z,101583.22
2022-08-07T20:11:01.937Z,101592.84
2022-08-07T20:13:48.419Z,101582.47
2022-08-07T20:16:35.754Z,101586.09
2022-08-07T20:19:05.841Z,101586.56
2022-08-07T20:21:41.632Z,101583.31
2022-08-07T20:24:22.796Z,101583.94
2022-08-07T20:26:54.850Z,101590.91
2022-08-07T20:29:48.648Z,101588.28
2022-08-07T20:32:23.011Z,101591.66
2022-08-07T20:34:55.922Z,101584.91
2022-08-07T20:37:37.059Z,101587.44
2022-08-07T20:40:33.087Z,101587.00
2022-08-07T20:43:02.254Z,101585.22
2022-08-07T20:45:33.809Z,101591.00
2022-08-07T20:48:28.497Z,101591.25
2022-08-07T20:51:01.277Z,101585.34
2022-08-07T20:54:04.296Z,101591.63
2022-08-07T20:56:16.389Z,101603.28
2022-08-07T20:58:46.701Z,101597.72
2022-08-07T21:01:19.864Z,101599.28
2022-08-07T21:04:18.594Z,101598.41
2022-08-07T21:06:39.256Z,101591.63
2022-08-07T21:09:17.246Z,101592.56
2022-08-07T21:11:52.228Z,101588.81
2022-08-07T21:14:31.973Z,101592.31
2022-08-07T21:18:20.783Z,101583.84
2022-08-07T21:20:00.788Z,101582.91
2022-08-07T21:22:38.965Z,101581.81
2022-08-07T21:25:12.893Z,101584.44
2022-08-07T21:27:53.702Z,101581.72
2022-08-07T21:30:25.813Z,101590.28
2022-08-07T21:33:12.532Z,101593.09
2022-08-07T21:36:06.060Z,101595.97
2022-08-07T21:38:53.004Z,101595.78
2022-08-07T21:41:37.876Z,101594.50
2022-08-07T21:44:28.426Z,101594.59
2022-08-07T21:47:41.183Z,101598.63
2022-08-07T21:50:31.863Z,101608.59
2022-08-07T21:53:07.664Z,101607.16
2022-08-07T21:55:51.826Z,101603.91
2022-08-07T21:58:46.862Z,101598.03
2022-08-07T22:02:07.098Z,101610.91
2022-08-07T22:04:23.568Z,101606.28
2022-08-07T22:07:08.962Z,101607.66
2022-08-07T22:09:53.547Z,101615.50
2022-08-07T22:12:31.706Z,101616.28
2022-08-07T22:16:45.058Z,101615.28
2022-08-07T22:17:57.806Z,101619.88
2022-08-07T22:20:44.103Z,101617.94
2022-08-07T22:23:24.152Z,101615.59
2022-08-07T22:26:13.340Z,101616.75
2022-08-07T22:28:48.461Z,101618.84
2022-08-07T22:34:29.219Z,101615.16
2022-08-07T22:38:01.859Z,101618.25
2022-08-07T22:40:35.764Z,101621.00
2022-08-07T22:43:09.710Z,101625.81
2022-08-07T22:46:41.025Z,101621.25
2022-08-07T22:49:11.209Z,101629.41
2022-08-07T22:52:08.091Z,101630.19
2022-08-07T22:55:14.793Z,101640.09
2022-08-07T22:58:20.125Z,101629.66
2022-08-07T23:01:06.657Z,101628.13
2022-08-07T23:04:01.757Z,101636.38
2022-08-07T23:06:59.025Z,101631.28
2022-08-07T23:10:05.148Z,101640.53
2022-08-07T23:13:04.623Z,101637.38
2022-08-07T23:16:07.182Z,101634.91
2022-08-07T23:18:57.993Z,101635.25
2022-08-07T23:21:29.868Z,101635.44
2022-08-07T23:24:18.278Z,101628.31
2022-08-07T23:26:50.530Z,101623.34
2022-08-07T23:29:43.552Z,101627.16
2022-08-07T23:34:21.572Z,101623.13
2022-08-07T23:35:54.439Z,101623.41
2022-08-07T23:38:45.655Z,101629.13
2022-08-07T23:42:04.151Z,101623.09
2022-08-07T23:44:59.921Z,101630.28
2022-08-07T23:47:57.904Z,101630.28
2022-08-07T23:50:39.016Z,101630.56
2022-08-07T23:53:19.327Z,101634.00
2022-08-07T23:56:24.836Z,101629.81
